KGSB/GSB METAR and TAF weather

Enter ICAO airport designator
Station Type Date Time Source
KGSB METAR 2019/10/15 08:56 UTC NOAA

KGSB 150856Z AUTO 00000KT 10SM CLR 10/10 A3008 RMK AO2 SLP189 T01030095 55001 $


Station Type Date Time Source
KGSB Decoded METAR 2019/10/15 08:56 UTC NOAA

Seymour-Johnson Air Force Base, NC, United States (KGSB) 35-20N 077-58W
Oct 15, 2019 - 04:56 AM EDT / 2019.10.15 0856 UTC
Wind: Calm:0
Visibility: 10 mile(s):0
Sky conditions: clear
Temperature: 50.5 F (10.3 C)
Dew Point: 49.1 F (9.5 C)
Relative Humidity: 94%
Pressure (altimeter): 30.08 in. Hg (1018 hPa)
Pressure tendency: 0.00 inches (0.1 hPa) lower than three hours ago
ob: KGSB 150856Z AUTO 00000KT 10SM CLR 10/10 A3008 RMK AO2 SLP189 T01030095 55001
cycle: 9

Station Type Date Time Source
KGSB TAF 2019/10/15 04:12 UTC NOAA

TAF TAF KGSB 150401Z 1504/1610 VRB03KT 9999 FEW250 QNH3000INS WND 03005KT AFT 1514
BECMG 1604/1605 12006KT 9999 SCT030 BKN100 QNH2988INS
BECMG 1608/1609 09010KT 9999 VCSH OVC020 QNH2984INS TX26/1520Z TN11/1511Z LAST NO
AMDS AFT 1504 NEXT 1511

Example: see airport list